createdAt,value
2019-05-23T00:01:42.609Z,7.60
2019-05-23T00:04:13.148Z,7.00
2019-05-23T00:06:43.023Z,7.07
2019-05-23T00:09:13.192Z,6.00
2019-05-23T00:11:44.987Z,5.50
2019-05-23T00:14:24.080Z,6.40
2019-05-23T00:16:54.606Z,6.17
2019-05-23T00:19:23.960Z,5.80
2019-05-23T00:21:53.991Z,6.20
2019-05-23T00:24:24.081Z,6.33
2019-05-23T00:26:53.171Z,6.70
2019-05-23T00:29:22.639Z,6.83
2019-05-23T00:31:52.983Z,6.53
2019-05-23T00:34:21.866Z,6.80
2019-05-23T00:36:51.268Z,7.17
2019-05-23T00:39:20.040Z,6.83
2019-05-23T00:41:49.275Z,6.03
2019-05-23T00:44:18.285Z,6.13
2019-05-23T00:46:47.379Z,6.40
2019-05-23T00:49:16.455Z,6.80
2019-05-23T00:51:46.569Z,6.87
2019-05-23T00:54:16.913Z,7.00
2019-05-23T00:56:46.196Z,7.70
2019-05-23T00:59:26.402Z,8.07
2019-05-23T01:01:47.722Z,8.10
2019-05-23T01:04:16.700Z,7.77
2019-05-23T01:06:45.403Z,8.20
2019-05-23T01:09:17.035Z,9.00
2019-05-23T01:11:47.605Z,8.87
2019-05-23T01:14:17.068Z,9.27
2019-05-23T01:16:46.967Z,9.07
2019-05-23T01:19:17.232Z,8.83
2019-05-23T01:21:47.583Z,8.70
2019-05-23T01:24:36.033Z,10.40
2019-05-23T01:27:07.308Z,7.87
2019-05-23T01:29:49.705Z,7.77
2019-05-23T01:32:18.988Z,7.30
2019-05-23T01:34:47.914Z,7.30
2019-05-23T01:37:19.232Z,6.87
2019-05-23T01:39:48.599Z,6.60
2019-05-23T01:42:18.378Z,6.80
2019-05-23T01:44:48.546Z,6.87
2019-05-23T01:47:18.234Z,6.67
2019-05-23T01:49:47.116Z,6.27
2019-05-23T01:52:17.891Z,6.93
2019-05-23T01:54:47.693Z,6.87
2019-05-23T01:57:17.292Z,7.67
2019-05-23T01:59:46.088Z,7.73
2019-05-23T02:02:16.935Z,7.90
2019-05-23T02:04:46.203Z,7.33
2019-05-23T02:07:16.464Z,7.27
2019-05-23T02:09:45.210Z,7.33
2019-05-23T02:12:14.148Z,6.97
2019-05-23T02:14:44.332Z,7.43
2019-05-23T02:17:13.800Z,6.30
2019-05-23T02:19:43.800Z,5.40
2019-05-23T02:22:13.286Z,5.77
2019-05-23T02:24:43.991Z,5.63
2019-05-23T02:27:12.961Z,5.60
2019-05-23T02:29:43.527Z,5.53
2019-05-23T02:32:12.914Z,6.20
2019-05-23T02:34:43.912Z,6.43
2019-05-23T02:37:23.683Z,4.90
2019-05-23T02:40:00.937Z,4.60
2019-05-23T02:42:31.376Z,4.77
2019-05-23T02:45:00.848Z,4.53
2019-05-23T02:47:33.907Z,4.00
2019-05-23T02:50:02.647Z,4.30
2019-05-23T02:52:39.069Z,4.33
2019-05-23T02:55:13.548Z,4.30
2019-05-23T02:57:43.224Z,4.40
2019-05-23T03:00:25.793Z,4.90
2019-05-23T03:02:56.333Z,4.97
2019-05-23T03:05:26.001Z,3.97
2019-05-23T03:07:56.679Z,3.57
2019-05-23T03:10:28.015Z,4.40
2019-05-23T03:12:58.679Z,3.30
2019-05-23T03:15:28.380Z,3.10
2019-05-23T03:18:00.016Z,3.20
2019-05-23T03:20:29.788Z,2.73
2019-05-23T03:23:17.760Z,2.70
2019-05-23T03:25:55.028Z,2.80
2019-05-23T03:28:25.870Z,2.50
2019-05-23T03:31:28.214Z,2.80
2019-05-23T03:33:44.124Z,2.77
2019-05-23T03:36:14.287Z,3.40
2019-05-23T03:38:43.466Z,2.67
2019-05-23T03:41:12.764Z,3.07
2019-05-23T03:43:41.939Z,3.00
2019-05-23T03:46:12.375Z,3.03
2019-05-23T03:48:42.344Z,2.83
2019-05-23T03:51:12.222Z,2.30
2019-05-23T03:53:43.407Z,2.63
2019-05-23T03:56:12.087Z,3.60
2019-05-23T03:58:41.786Z,2.67
2019-05-23T04:01:12.551Z,2.73
2019-05-23T04:03:42.809Z,3.07
2019-05-23T04:06:12.781Z,2.83
2019-05-23T04:08:41.485Z,2.97
2019-05-23T04:11:10.367Z,2.80
2019-05-23T04:13:39.230Z,3.10
2019-05-23T04:16:08.398Z,2.37
2019-05-23T04:18:37.472Z,2.97
2019-05-23T04:21:06.534Z,2.30
2019-05-23T04:23:35.640Z,2.13
2019-05-23T04:26:04.608Z,2.30
2019-05-23T04:28:33.416Z,2.33
2019-05-23T04:31:02.183Z,2.60
2019-05-23T04:33:31.184Z,2.30
2019-05-23T04:36:00.261Z,1.90
2019-05-23T04:38:29.160Z,2.30
2019-05-23T04:40:57.867Z,1.90
2019-05-23T04:43:26.836Z,2.30
2019-05-23T04:45:55.907Z,2.63
2019-05-23T04:48:24.676Z,1.90
2019-05-23T04:50:53.676Z,1.73
2019-05-23T04:53:22.729Z,1.97
2019-05-23T04:55:52.383Z,2.07
2019-05-23T04:58:22.652Z,1.90
2019-05-23T05:00:51.830Z,2.27
2019-05-23T05:03:21.627Z,1.90
2019-05-23T05:05:51.092Z,2.63
2019-05-23T05:08:20.000Z,1.80
2019-05-23T05:10:49.566Z,1.90
2019-05-23T05:13:19.439Z,2.20
2019-05-23T05:15:48.134Z,1.60
2019-05-23T05:18:17.191Z,1.83
2019-05-23T05:20:45.968Z,2.90
2019-05-23T05:23:14.669Z,1.63
2019-05-23T05:25:43.395Z,2.17
2019-05-23T05:28:12.100Z,2.00
2019-05-23T05:30:40.951Z,1.50
2019-05-23T05:33:10.037Z,1.70
2019-05-23T05:35:39.032Z,2.03
2019-05-23T05:38:08.055Z,1.63
2019-05-23T05:40:37.132Z,1.43
2019-05-23T05:43:06.299Z,1.80
2019-05-23T05:45:35.460Z,1.70
2019-05-23T05:48:04.365Z,2.33
2019-05-23T05:50:33.139Z,1.23
2019-05-23T05:53:02.623Z,1.47
2019-05-23T05:55:31.312Z,1.60
2019-05-23T05:58:00.052Z,1.40
2019-05-23T06:00:30.594Z,1.57
2019-05-23T06:03:05.125Z,1.80
2019-05-23T06:05:32.985Z,1.20
2019-05-23T06:08:02.148Z,2.07
2019-05-23T06:10:30.952Z,1.93
2019-05-23T06:12:59.884Z,2.00
2019-05-23T06:15:30.456Z,1.27
2019-05-23T06:17:59.314Z,1.53
2019-05-23T06:20:28.308Z,1.40
2019-05-23T06:22:57.176Z,1.50
2019-05-23T06:25:26.304Z,1.30
2019-05-23T06:27:55.116Z,1.60
2019-05-23T06:30:24.919Z,1.70
2019-05-23T06:32:53.775Z,1.07
2019-05-23T06:35:22.587Z,1.67
2019-05-23T06:37:52.003Z,1.33
2019-05-23T06:40:21.681Z,1.23
2019-05-23T06:42:51.246Z,1.30
2019-05-23T06:45:20.858Z,1.30
2019-05-23T06:47:49.549Z,1.10
2019-05-23T06:50:19.327Z,1.00
2019-05-23T06:52:48.053Z,1.13
2019-05-23T06:55:16.838Z,1.20
2019-05-23T06:57:45.659Z,1.10
2019-05-23T07:00:16.210Z,1.00
2019-05-23T07:02:45.764Z,1.37
2019-05-23T07:05:17.768Z,1.03
2019-05-23T07:07:46.670Z,1.17
2019-05-23T07:10:35.200Z,1.80
2019-05-23T07:13:05.387Z,1.00
2019-05-23T07:15:34.183Z,1.10
2019-05-23T07:18:03.708Z,1.20
2019-05-23T07:20:32.462Z,1.20
2019-05-23T07:23:01.470Z,1.15
2019-05-23T07:25:30.707Z,1.77
2019-05-23T07:28:00.391Z,1.30
2019-05-23T07:30:29.193Z,0.80
2019-05-23T07:32:58.079Z,1.00
2019-05-23T07:35:26.909Z,0.93
2019-05-23T07:37:55.611Z,1.20
2019-05-23T07:40:26.865Z,0.98
2019-05-23T07:42:56.024Z,0.90
2019-05-23T07:45:39.451Z,0.80
2019-05-23T07:48:07.111Z,1.10
2019-05-23T07:50:37.026Z,1.07
2019-05-23T07:53:07.663Z,0.90
2019-05-23T07:55:38.099Z,0.82
2019-05-23T07:58:07.559Z,0.90
2019-05-23T08:00:57.012Z,1.12
2019-05-23T08:03:30.951Z,0.70
2019-05-23T08:05:59.752Z,1.02
2019-05-23T08:08:28.443Z,0.80
2019-05-23T08:10:57.221Z,1.10
2019-05-23T08:13:26.519Z,0.90
2019-05-23T08:15:55.898Z,1.20
2019-05-23T08:18:44.195Z,1.27
2019-05-23T08:21:12.992Z,1.17
2019-05-23T08:23:41.687Z,0.90
2019-05-23T08:26:11.224Z,1.00
2019-05-23T08:29:00.448Z,1.10
2019-05-23T08:31:11.036Z,1.05
2019-05-23T08:33:39.938Z,1.42
2019-05-23T08:36:10.212Z,1.20
2019-05-23T08:38:39.097Z,1.20
2019-05-23T08:41:07.855Z,1.27
2019-05-23T08:43:37.133Z,1.30
2019-05-23T08:46:06.406Z,1.02
2019-05-23T08:48:35.275Z,1.25
2019-05-23T08:51:04.979Z,1.17
2019-05-23T08:53:34.027Z,0.98
2019-05-23T08:56:03.686Z,1.30
2019-05-23T08:58:33.393Z,1.22
2019-05-23T09:01:02.460Z,1.10
2019-05-23T09:03:32.059Z,0.88
2019-05-23T09:06:01.760Z,1.25
2019-05-23T09:08:31.256Z,1.10
2019-05-23T09:11:00.422Z,1.40
2019-05-23T09:13:29.551Z,1.02
2019-05-23T09:15:58.287Z,1.67
2019-05-23T09:18:27.139Z,1.00
2019-05-23T09:20:56.142Z,1.17
2019-05-23T09:23:24.847Z,1.10
2019-05-23T09:25:53.636Z,0.80
2019-05-23T09:28:22.439Z,0.93
2019-05-23T09:30:51.503Z,1.02
2019-05-23T09:33:20.279Z,1.20
2019-05-23T09:35:49.055Z,0.80
2019-05-23T09:38:17.831Z,1.05
2019-05-23T09:40:46.539Z,0.90
2019-05-23T09:43:15.657Z,1.10
2019-05-23T09:45:44.585Z,1.00
2019-05-23T09:48:13.371Z,1.00
2019-05-23T09:50:42.144Z,1.00
2019-05-23T09:53:11.035Z,1.10
2019-05-23T09:55:39.743Z,1.02
2019-05-23T09:58:08.843Z,0.90
2019-05-23T10:00:39.773Z,0.75
2019-05-23T10:03:08.465Z,1.02
2019-05-23T10:05:43.282Z,1.07
2019-05-23T10:08:07.693Z,1.30
2019-05-23T10:10:36.614Z,1.00
2019-05-23T10:13:05.447Z,0.90
2019-05-23T10:15:36.280Z,1.37
2019-05-23T10:18:05.356Z,1.10
2019-05-23T10:20:34.911Z,1.15
2019-05-23T10:23:04.412Z,0.98
2019-05-23T10:25:33.118Z,1.10
2019-05-23T10:28:01.930Z,0.95
2019-05-23T10:30:30.687Z,1.25
2019-05-23T10:32:59.418Z,1.27
2019-05-23T10:35:28.882Z,0.93
2019-05-23T10:37:57.855Z,1.17
2019-05-23T10:40:26.960Z,1.10
2019-05-23T10:42:55.647Z,1.00
2019-05-23T10:45:24.955Z,0.98
2019-05-23T10:47:53.654Z,0.80
2019-05-23T10:50:22.457Z,1.10
2019-05-23T10:52:51.151Z,1.12
2019-05-23T10:55:19.844Z,1.20
2019-05-23T10:57:48.858Z,0.90
2019-05-23T11:00:19.818Z,0.85
2019-05-23T11:03:07.802Z,1.30
2019-05-23T11:05:36.534Z,1.10
2019-05-23T11:08:06.708Z,1.15
2019-05-23T11:10:35.704Z,0.90
2019-05-23T11:13:04.807Z,1.05
2019-05-23T11:15:33.788Z,1.10
2019-05-23T11:18:02.484Z,1.12
2019-05-23T11:20:31.468Z,1.32
2019-05-23T11:23:03.509Z,1.40
2019-05-23T11:25:31.351Z,1.32
2019-05-23T11:28:00.271Z,1.25
2019-05-23T11:30:36.376Z,1.55
2019-05-23T11:33:05.071Z,1.20
2019-05-23T11:35:33.957Z,1.30
2019-05-23T11:38:02.869Z,1.20
2019-05-23T11:40:33.706Z,0.95
2019-05-23T11:43:02.095Z,1.05
2019-05-23T11:45:32.735Z,1.20
2019-05-23T11:48:01.595Z,1.22
2019-05-23T11:50:30.372Z,1.00
2019-05-23T11:52:59.121Z,1.20
2019-05-23T11:55:27.887Z,1.55
2019-05-23T11:57:56.654Z,1.07
2019-05-23T12:00:47.294Z,1.30
2019-05-23T12:03:16.079Z,1.30
2019-05-23T12:05:44.843Z,0.95
2019-05-23T12:08:13.616Z,1.20
2019-05-23T12:10:42.336Z,1.17
2019-05-23T12:13:11.414Z,1.30
2019-05-23T12:15:41.560Z,1.10
2019-05-23T12:18:10.531Z,1.20
2019-05-23T12:20:39.223Z,1.30
2019-05-23T12:23:10.928Z,1.30
2019-05-23T12:25:38.839Z,1.00
2019-05-23T12:28:08.016Z,1.30
2019-05-23T12:30:36.783Z,1.15
2019-05-23T12:33:05.492Z,1.30
2019-05-23T12:35:34.263Z,1.30
2019-05-23T12:38:03.363Z,1.22
2019-05-23T12:40:32.065Z,1.20
2019-05-23T12:43:01.137Z,1.60
2019-05-23T12:45:29.955Z,1.82
2019-05-23T12:48:16.562Z,1.10
2019-05-23T12:50:53.820Z,1.17
2019-05-23T12:53:21.560Z,1.10
2019-05-23T12:55:50.377Z,1.30
2019-05-23T12:58:19.317Z,1.20
2019-05-23T13:00:50.538Z,1.20
2019-05-23T13:03:19.403Z,1.27
2019-05-23T13:05:48.502Z,1.00
2019-05-23T13:08:17.617Z,1.20
2019-05-23T13:10:46.308Z,1.15
2019-05-23T13:13:15.272Z,1.17
2019-05-23T13:15:44.282Z,1.02
2019-05-23T13:18:13.168Z,1.20
2019-05-23T13:20:42.939Z,1.30
2019-05-23T13:23:20.403Z,1.20
2019-05-23T13:25:42.318Z,1.10
2019-05-23T13:28:11.022Z,1.10
2019-05-23T13:30:39.815Z,1.15
2019-05-23T13:33:08.521Z,1.02
2019-05-23T13:35:37.699Z,1.60
2019-05-23T13:38:06.431Z,1.10
2019-05-23T13:40:35.147Z,0.95
2019-05-23T13:43:07.338Z,1.17
2019-05-23T13:45:34.547Z,1.52
2019-05-23T13:48:03.344Z,1.00
2019-05-23T13:50:32.536Z,1.02
2019-05-23T13:53:02.079Z,1.10
2019-05-23T13:55:31.061Z,1.05
2019-05-23T13:58:00.165Z,1.10
2019-05-23T14:00:30.348Z,1.12
2019-05-23T14:02:59.233Z,1.10
2019-05-23T14:05:28.311Z,1.12
2019-05-23T14:08:11.495Z,1.17
2019-05-23T14:10:28.540Z,1.10
2019-05-23T14:12:57.532Z,1.12
2019-05-23T14:15:33.701Z,1.10
2019-05-23T14:18:02.693Z,1.00
2019-05-23T14:20:31.852Z,0.98
2019-05-23T14:23:05.178Z,1.10
2019-05-23T14:25:33.887Z,1.25
2019-05-23T14:28:07.230Z,1.10
2019-05-23T14:30:37.679Z,1.07
2019-05-23T14:33:20.819Z,1.07
2019-05-23T14:35:51.383Z,0.93
2019-05-23T14:38:30.328Z,1.00
2019-05-23T14:40:51.293Z,1.10
2019-05-23T14:43:24.328Z,1.20
2019-05-23T14:45:58.148Z,1.10
2019-05-23T14:48:34.510Z,1.00
2019-05-23T14:51:07.869Z,1.10
2019-05-23T14:53:53.243Z,1.15
2019-05-23T14:56:23.597Z,0.90
2019-05-23T14:58:53.095Z,1.00
2019-05-23T15:01:22.974Z,1.20
2019-05-23T15:03:52.034Z,1.05
2019-05-23T15:06:21.009Z,1.30
2019-05-23T15:09:10.560Z,1.22
2019-05-23T15:11:39.547Z,1.00
2019-05-23T15:14:08.408Z,1.20
2019-05-23T15:16:37.299Z,1.00
2019-05-23T15:19:06.370Z,0.80
2019-05-23T15:21:35.124Z,1.10
2019-05-23T15:24:03.904Z,0.90
2019-05-23T15:26:32.584Z,0.88
2019-05-23T15:29:01.211Z,0.98
2019-05-23T15:31:29.904Z,0.98
2019-05-23T15:33:58.690Z,1.30
2019-05-23T15:36:27.492Z,0.90
2019-05-23T15:39:08.911Z,1.05
2019-05-23T15:41:26.536Z,0.80
2019-05-23T15:43:55.507Z,1.00
2019-05-23T15:46:24.268Z,0.85
2019-05-23T15:48:52.963Z,1.17
2019-05-23T15:51:23.423Z,1.00
2019-05-23T15:53:53.764Z,1.40
2019-05-23T15:56:28.148Z,0.90
2019-05-23T15:58:56.102Z,1.10
2019-05-23T16:01:26.745Z,1.12
2019-05-23T16:03:59.924Z,0.93
2019-05-23T16:06:30.292Z,0.80
2019-05-23T16:08:59.449Z,1.00
2019-05-23T16:11:28.423Z,1.10
2019-05-23T16:13:57.120Z,0.88
2019-05-23T16:16:27.207Z,0.85
2019-05-23T16:18:56.085Z,0.90
2019-05-23T16:21:25.069Z,0.90
2019-05-23T16:23:54.120Z,0.90
2019-05-23T16:26:22.815Z,0.98
2019-05-23T16:28:51.521Z,1.00
2019-05-23T16:31:20.222Z,1.20
2019-05-23T16:33:48.993Z,0.78
2019-05-23T16:36:18.299Z,1.17
2019-05-23T16:38:47.099Z,0.90
2019-05-23T16:41:15.798Z,1.00
2019-05-23T16:43:44.501Z,0.90
2019-05-23T16:46:13.215Z,1.00
2019-05-23T16:48:42.195Z,1.30
2019-05-23T16:51:11.019Z,1.00
2019-05-23T16:53:40.188Z,0.90
2019-05-23T16:56:45.274Z,1.07
2019-05-23T16:59:18.623Z,0.90
2019-05-23T17:01:57.915Z,0.90
2019-05-23T17:04:26.781Z,1.10
2019-05-23T17:07:02.960Z,1.22
2019-05-23T17:09:42.542Z,1.27
2019-05-23T17:12:28.869Z,0.90
2019-05-23T17:14:59.204Z,1.00
2019-05-23T17:18:00.598Z,0.95
2019-05-23T17:20:22.655Z,0.90
2019-05-23T17:23:02.399Z,0.80
2019-05-23T17:25:34.653Z,0.90
2019-05-23T17:28:07.648Z,0.85
2019-05-23T17:30:46.921Z,1.00
2019-05-23T17:33:16.527Z,1.00
2019-05-23T17:35:45.279Z,0.93
2019-05-23T17:38:14.400Z,0.82
2019-05-23T17:40:43.459Z,1.00
2019-05-23T17:43:12.317Z,1.50
2019-05-23T17:45:40.980Z,0.90
2019-05-23T17:48:10.152Z,1.22
2019-05-23T17:50:38.876Z,1.22
2019-05-23T17:53:07.692Z,1.15
2019-05-23T17:55:36.372Z,1.07
2019-05-23T17:58:05.368Z,1.17
2019-05-23T18:00:38.547Z,1.40
2019-05-23T18:03:08.108Z,1.20
2019-05-23T18:05:36.887Z,1.20
2019-05-23T18:08:07.364Z,1.22
2019-05-23T18:10:44.484Z,1.17
2019-05-23T18:13:07.366Z,1.47
2019-05-23T18:15:36.519Z,1.10
2019-05-23T18:18:06.163Z,1.40
2019-05-23T18:20:35.655Z,0.98
2019-05-23T18:23:04.827Z,1.07
2019-05-23T18:25:33.793Z,1.17
2019-05-23T18:28:02.878Z,1.15
2019-05-23T18:30:34.120Z,1.15
2019-05-23T18:33:03.908Z,1.25
2019-05-23T18:35:33.271Z,1.10
2019-05-23T18:38:02.541Z,1.20
2019-05-23T18:40:31.447Z,1.15
2019-05-23T18:43:00.427Z,1.40
2019-05-23T18:45:30.765Z,1.30
2019-05-23T18:47:59.394Z,1.30
2019-05-23T18:50:28.976Z,1.52
2019-05-23T18:53:18.134Z,1.83
2019-05-23T18:55:47.206Z,1.20
2019-05-23T18:58:19.398Z,1.10
2019-05-23T19:00:52.960Z,1.30
2019-05-23T19:03:22.560Z,1.00
2019-05-23T19:05:51.851Z,1.20
2019-05-23T19:08:20.632Z,1.37
2019-05-23T19:10:49.331Z,1.40
2019-05-23T19:13:18.027Z,1.20
2019-05-23T19:15:46.834Z,1.60
2019-05-23T19:18:15.907Z,1.30
2019-05-23T19:20:44.780Z,1.40
2019-05-23T19:23:13.576Z,1.20
2019-05-23T19:25:43.331Z,1.40
2019-05-23T19:28:12.697Z,1.30
2019-05-23T19:30:42.359Z,1.60
2019-05-23T19:33:11.362Z,1.57
2019-05-23T19:35:40.429Z,1.63
2019-05-23T19:38:09.189Z,1.30
2019-05-23T19:40:38.063Z,2.30
2019-05-23T19:43:08.527Z,1.87
2019-05-23T19:45:37.791Z,1.70
2019-05-23T19:48:06.591Z,1.60
2019-05-23T19:50:35.667Z,1.40
2019-05-23T19:53:05.265Z,1.63
2019-05-23T19:55:34.066Z,1.40
2019-05-23T19:58:02.759Z,1.70
2019-05-23T20:00:33.207Z,1.53
2019-05-23T20:03:04.196Z,1.40
2019-05-23T20:05:34.300Z,1.50
2019-05-23T20:08:03.280Z,1.60
2019-05-23T20:10:32.796Z,1.73
2019-05-23T20:13:01.750Z,1.43
2019-05-23T20:15:31.464Z,1.47
2019-05-23T20:18:00.221Z,1.50
2019-05-23T20:20:30.031Z,1.50
2019-05-23T20:22:58.731Z,2.07
2019-05-23T20:25:28.295Z,1.70
2019-05-23T20:27:57.001Z,1.47
2019-05-23T20:30:47.578Z,1.70
2019-05-23T20:33:16.415Z,1.70
2019-05-23T20:35:45.217Z,1.60
2019-05-23T20:38:14.188Z,1.83
2019-05-23T20:40:43.065Z,1.60
2019-05-23T20:43:12.399Z,1.57
2019-05-23T20:45:41.267Z,1.80
2019-05-23T20:48:10.568Z,1.60
2019-05-23T20:50:39.266Z,1.50
2019-05-23T20:53:08.032Z,1.20
2019-05-23T20:55:37.047Z,1.50
2019-05-23T20:58:06.249Z,1.50
2019-05-23T21:00:52.224Z,1.50
2019-05-23T21:03:21.295Z,1.50
2019-05-23T21:05:50.097Z,1.40
2019-05-23T21:08:18.792Z,1.40
2019-05-23T21:10:48.985Z,1.50
2019-05-23T21:13:18.380Z,1.23
2019-05-23T21:15:47.937Z,1.13
2019-05-23T21:18:16.650Z,1.30
2019-05-23T21:20:45.531Z,1.30
2019-05-23T21:23:14.227Z,1.40
2019-05-23T21:25:44.564Z,1.60
2019-05-23T21:28:13.369Z,1.43
2019-05-23T21:30:42.135Z,1.40
2019-05-23T21:33:10.831Z,1.60
2019-05-23T21:35:39.727Z,1.20
2019-05-23T21:38:08.431Z,1.40
2019-05-23T21:40:40.093Z,1.37
2019-05-23T21:43:08.894Z,1.30
2019-05-23T21:45:37.666Z,1.30
2019-05-23T21:48:06.380Z,1.00
2019-05-23T21:50:35.079Z,1.20
2019-05-23T21:53:03.955Z,1.10
2019-05-23T21:55:43.127Z,1.10
2019-05-23T21:58:13.121Z,1.10
2019-05-23T22:01:13.416Z,1.40
2019-05-23T22:03:52.780Z,1.30
2019-05-23T22:06:24.760Z,1.33
2019-05-23T22:08:53.477Z,1.30
2019-05-23T22:11:22.253Z,1.33
2019-05-23T22:13:51.142Z,1.20
2019-05-23T22:16:20.112Z,1.20
2019-05-23T22:18:48.803Z,1.30
2019-05-23T22:21:17.971Z,1.30
2019-05-23T22:23:46.735Z,1.47
2019-05-23T22:26:15.480Z,1.83
2019-05-23T22:28:44.184Z,1.27
2019-05-23T22:31:13.141Z,1.40
2019-05-23T22:33:49.181Z,1.30
2019-05-23T22:36:18.545Z,1.30
2019-05-23T22:38:47.244Z,1.37
2019-05-23T22:41:15.934Z,1.30
2019-05-23T22:43:44.639Z,1.60
2019-05-23T22:46:13.807Z,1.47
2019-05-23T22:48:43.182Z,1.23
2019-05-23T22:51:11.871Z,1.37
2019-05-23T22:53:40.600Z,1.20
2019-05-23T22:56:09.291Z,1.67
2019-05-23T22:58:37.911Z,1.60
2019-05-23T23:01:06.783Z,1.47
2019-05-23T23:03:35.563Z,1.43
2019-05-23T23:06:04.648Z,1.77
2019-05-23T23:08:33.867Z,1.70
2019-05-23T23:11:02.568Z,1.60
2019-05-23T23:13:38.568Z,1.70
2019-05-23T23:16:02.678Z,1.70
2019-05-23T23:18:31.398Z,1.70
2019-05-23T23:21:00.097Z,1.70
2019-05-23T23:23:28.828Z,1.90
2019-05-23T23:25:57.507Z,1.60
2019-05-23T23:28:26.272Z,1.93
2019-05-23T23:30:55.050Z,1.67
2019-05-23T23:33:23.803Z,1.70
2019-05-23T23:35:52.581Z,1.70
2019-05-23T23:38:21.331Z,1.67
2019-05-23T23:40:50.023Z,1.90
2019-05-23T23:43:18.740Z,1.87
2019-05-23T23:46:05.315Z,1.87
2019-05-23T23:48:51.739Z,1.87
2019-05-23T23:51:38.384Z,1.93
2019-05-23T23:54:25.075Z,2.30
2019-05-23T23:57:11.879Z,1.80
2019-05-23T23:59:39.952Z,2.00
